Time;durP1;ratioP1;P1;durP2;ratioP2;P2;SDS_P1;SDS_P2;PMS_P1;PMS_P2;Temp;Humidity;BMP_temperature;BMP_pressure;BME280_temperature;BME280_humidity;BME280_pressure;Samples;Min_cycle;Max_cycle;Signal;HPM_P1;HPM_P2
2022/10/07 00:00:54;;;;;;;4.72;1.80;;;11.70;72.80;;;;;;5015560;28;20061;-81
2022/10/07 00:03:21;;;;;;;2.73;1.43;;;11.70;72.80;;;;;;5000909;28;20317;-81
2022/10/07 00:05:58;;;;;;;2.83;1.35;;;11.70;73.00;;;;;;5018926;28;20036;-82
2022/10/07 00:08:24;;;;;;;3.22;1.70;;;11.70;73.70;;;;;;5004113;28;20529;-81
2022/10/07 00:10:50;;;;;;;2.83;1.67;;;11.60;73.00;;;;;;5037169;28;20029;-82
2022/10/07 00:13:16;;;;;;;3.80;1.42;;;11.70;73.10;;;;;;5020739;28;20262;-81
2022/10/07 00:15:41;;;;;;;1.92;1.27;;;11.60;73.20;;;;;;5004684;28;20236;-82
2022/10/07 00:18:07;;;;;;;2.70;1.47;;;11.60;73.20;;;;;;5028413;28;20360;-82
2022/10/07 00:20:39;;;;;;;2.60;1.40;;;11.50;73.40;;;;;;5002140;28;20091;-82
2022/10/07 00:23:06;;;;;;;3.80;1.40;;;11.50;73.80;;;;;;5009916;28;20029;-82
2022/10/07 00:25:36;;;;;;;2.97;1.30;;;11.50;73.60;;;;;;4997411;28;20060;-82
2022/10/07 00:28:02;;;;;;;2.90;1.10;;;11.40;73.60;;;;;;5012241;28;20075;-82
2022/10/07 00:30:28;;;;;;;2.95;1.10;;;11.40;73.60;;;;;;5007478;28;20431;-82
2022/10/07 00:32:54;;;;;;;2.00;1.10;;;11.40;73.60;;;;;;5009616;28;20018;-82
2022/10/07 00:35:19;;;;;;;2.23;1.00;;;11.40;73.80;;;;;;5011781;28;20034;-82
2022/10/07 00:37:45;;;;;;;2.57;1.23;;;11.40;73.80;;;;;;5000192;28;20027;-82
2022/10/07 00:40:12;;;;;;;1.80;1.10;;;11.30;73.80;;;;;;5019738;28;20151;-82
2022/10/07 00:42:39;;;;;;;2.63;1.35;;;11.30;74.00;;;;;;4996182;28;20029;-82
2022/10/07 00:45:12;;;;;;;2.25;1.20;;;11.30;74.00;;;;;;4985286;28;20036;-82
2022/10/07 00:47:39;;;;;;;2.37;1.00;;;11.30;74.10;;;;;;4999594;28;20096;-82
2022/10/07 00:50:07;;;;;;;2.05;1.10;;;11.30;74.10;;;;;;5017465;28;20402;-82
2022/10/07 00:52:43;;;;;;;1.90;1.23;;;11.20;74.40;;;;;;5026943;28;20033;-82
2022/10/07 00:55:12;;;;;;;3.40;1.08;;;11.20;74.50;;;;;;5009525;28;20478;-82
2022/10/07 00:57:39;;;;;;;1.98;1.00;;;11.20;74.40;;;;;;5016727;28;20476;-82
2022/10/07 01:00:06;;;;;;;2.13;1.10;;;11.20;74.40;;;;;;5027883;28;20090;-82
2022/10/07 01:02:33;;;;;;;2.10;0.95;;;11.20;74.50;;;;;;5003987;28;20036;-81
2022/10/07 01:05:01;;;;;;;1.58;1.20;;;11.20;74.60;;;;;;5019529;28;20029;-81
2022/10/07 01:07:27;;;;;;;2.20;1.00;;;11.20;74.70;;;;;;4994418;28;20025;-81
2022/10/07 01:09:54;;;;;;;2.55;1.00;;;11.20;74.60;;;;;;4999593;28;20036;-81
2022/10/07 01:12:43;;;;;;;1.90;1.10;;;11.10;74.60;;;;;;5016208;28;20481;-83
2022/10/07 01:15:15;;;;;;;2.15;1.10;;;11.10;75.80;;;;;;5006736;28;20029;-83
2022/10/07 01:18:13;;;;;;;1.95;0.90;;;11.10;75.20;;;;;;5024740;28;20534;-83
2022/10/07 01:20:45;;;;;;;1.30;1.00;;;11.10;74.80;;;;;;4977858;28;20377;-84
2022/10/07 01:23:23;;;;;;;2.50;1.00;;;11.10;74.90;;;;;;5001322;28;20403;-84
2022/10/07 01:25:51;;;;;;;2.93;0.97;;;11.00;75.50;;;;;;5012375;28;20033;-83
2022/10/07 01:28:31;;;;;;;2.58;0.95;;;11.00;75.00;;;;;;5012069;28;20398;-83
2022/10/07 01:31:03;;;;;;;1.90;1.10;;;11.00;75.20;;;;;;5011533;28;20325;-83
2022/10/07 01:33:32;;;;;;;2.10;1.10;;;11.00;75.20;;;;;;5005389;28;20018;-83
2022/10/07 01:36:06;;;;;;;1.92;1.00;;;10.90;75.00;;;;;;5002330;28;20103;-83
2022/10/07 01:38:33;;;;;;;1.77;0.93;;;10.90;75.40;;;;;;5004061;28;20748;-83
2022/10/07 01:41:13;;;;;;;2.40;1.00;;;10.90;75.20;;;;;;5015111;28;20139;-83
2022/10/07 01:43:41;;;;;;;2.50;0.85;;;10.90;75.80;;;;;;5003527;28;20325;-83
2022/10/07 01:46:11;;;;;;;3.58;1.10;;;10.90;75.30;;;;;;5016835;28;20132;-84
2022/10/07 01:48:37;;;;;;;2.17;1.00;;;10.80;75.30;;;;;;5010030;28;20044;-84
2022/10/07 01:51:03;;;;;;;2.43;1.00;;;10.80;75.40;;;;;;5037752;28;20072;-84
2022/10/07 01:53:50;;;;;;;2.58;1.00;;;10.80;75.40;;;;;;4985249;28;20067;-83
2022/10/07 01:56:30;;;;;;;2.22;0.90;;;10.80;76.50;;;;;;5017601;28;20030;-83
2022/10/07 01:59:13;;;;;;;1.65;1.08;;;10.80;76.80;;;;;;5032795;28;20508;-84
2022/10/07 02:02:08;;;;;;;1.97;0.93;;;10.80;76.00;;;;;;5021446;28;20383;-84
2022/10/07 02:04:55;;;;;;;2.03;1.00;;;10.70;76.30;;;;;;5001091;28;20259;-84
2022/10/07 02:07:43;;;;;;;2.22;0.80;;;10.70;76.70;;;;;;5026916;28;20390;-84
2022/10/07 02:10:24;;;;;;;3.53;1.10;;;10.70;76.30;;;;;;4996633;28;20393;-84
2022/10/07 02:13:17;;;;;;;2.17;0.90;;;10.70;77.00;;;;;;5013914;28;20318;-84
2022/10/07 02:16:17;;;;;;;3.30;1.00;;;10.80;77.70;;;;;;5008077;28;20033;-84
2022/10/07 02:18:47;;;;;;;1.23;0.90;;;10.70;77.80;;;;;;4995413;28;20522;-83
2022/10/07 02:21:15;;;;;;;3.83;1.15;;;10.80;76.90;;;;;;5007164;28;20018;-84
2022/10/07 02:23:43;;;;;;;2.20;0.85;;;10.80;77.00;;;;;;5002536;28;20025;-82
2022/10/07 02:26:12;;;;;;;1.85;1.00;;;10.80;77.10;;;;;;5022640;28;20029;-82
2022/10/07 02:28:41;;;;;;;2.13;1.00;;;10.80;77.20;;;;;;5011405;28;20021;-82
2022/10/07 02:31:11;;;;;;;2.13;1.00;;;10.80;77.30;;;;;;4999229;28;20478;-82
2022/10/07 02:33:38;;;;;;;2.25;1.00;;;10.80;77.30;;;;;;5012669;28;20021;-81
2022/10/07 02:36:11;;;;;;;3.20;1.10;;;10.80;77.20;;;;;;5032348;28;20025;-82
2022/10/07 02:38:38;;;;;;;2.08;0.90;;;10.80;77.50;;;;;;4997485;28;20021;-82
2022/10/07 02:41:49;;;;;;;2.20;1.10;;;10.90;77.30;;;;;;5006035;28;20124;-82
2022/10/07 02:44:24;;;;;;;1.58;0.80;;;10.80;78.40;;;;;;5019716;28;20257;-82
2022/10/07 02:47:05;;;;;;;1.55;0.90;;;10.80;77.70;;;;;;5014798;28;20040;-82
2022/10/07 02:49:38;;;;;;;2.13;1.00;;;10.90;77.60;;;;;;5009771;28;20100;-82
2022/10/07 02:52:11;;;;;;;2.55;1.10;;;10.80;77.50;;;;;;5009115;28;20029;-82
2022/10/07 02:54:43;;;;;;;2.40;1.10;;;10.80;77.70;;;;;;5012659;28;20021;-82
2022/10/07 02:57:13;;;;;;;3.17;1.00;;;10.80;78.10;;;;;;5006348;28;20349;-82
2022/10/07 02:59:39;;;;;;;1.75;0.80;;;10.80;78.00;;;;;;5013553;28;20048;-82
2022/10/07 03:02:11;;;;;;;3.90;1.10;;;10.80;77.90;;;;;;5023546;28;20021;-82
2022/10/07 03:04:37;;;;;;;2.47;0.90;;;10.80;78.30;;;;;;5028373;28;20100;-82
2022/10/07 03:07:04;;;;;;;3.03;1.00;;;10.80;78.00;;;;;;5006146;28;20065;-82
2022/10/07 03:09:30;;;;;;;5.50;1.30;;;10.80;78.10;;;;;;5002432;28;20033;-82
2022/10/07 03:11:55;;;;;;;3.65;1.00;;;10.80;78.10;;;;;;5002177;28;20478;-82
2022/10/07 03:14:23;;;;;;;2.73;1.20;;;10.80;78.20;;;;;;5030397;28;20390;-82
2022/10/07 03:16:50;;;;;;;3.58;1.10;;;10.80;78.30;;;;;;5024674;28;20068;-82
2022/10/07 03:19:16;;;;;;;2.92;1.10;;;10.80;78.30;;;;;;5007488;28;20144;-82
2022/10/07 03:21:41;;;;;;;2.77;1.10;;;10.80;78.50;;;;;;5015743;28;20022;-82
2022/10/07 03:24:07;;;;;;;3.10;1.00;;;10.80;78.50;;;;;;4997995;28;20030;-82
2022/10/07 03:26:34;;;;;;;1.90;0.80;;;10.80;78.60;;;;;;5002008;28;20022;-82
2022/10/07 03:29:00;;;;;;;2.22;0.93;;;10.80;78.60;;;;;;5009294;28;20043;-82
2022/10/07 03:31:26;;;;;;;2.85;1.00;;;10.80;78.70;;;;;;4997412;28;20254;-83
2022/10/07 03:33:56;;;;;;;3.25;1.10;;;10.80;78.70;;;;;;4989943;28;20049;-82
2022/10/07 03:36:22;;;;;;;3.90;0.90;;;10.80;79.00;;;;;;4988320;28;20116;-82
2022/10/07 03:38:49;;;;;;;3.20;1.10;;;10.80;78.90;;;;;;5029899;28;20478;-82
2022/10/07 03:41:15;;;;;;;2.85;1.00;;;10.80;78.90;;;;;;4999215;28;20229;-82
2022/10/07 03:43:41;;;;;;;2.75;1.10;;;10.80;79.00;;;;;;4986727;28;20062;-82
2022/10/07 03:46:07;;;;;;;3.07;1.00;;;10.80;79.00;;;;;;5009720;28;20038;-82
2022/10/07 03:48:32;;;;;;;2.50;1.02;;;10.80;79.00;;;;;;4992293;28;20067;-82
2022/10/07 03:50:58;;;;;;;2.27;1.10;;;10.80;79.00;;;;;;4997353;28;20508;-82
2022/10/07 03:53:25;;;;;;;3.25;1.10;;;10.80;79.10;;;;;;5022934;28;20056;-82
2022/10/07 03:55:51;;;;;;;2.08;0.85;;;10.70;79.10;;;;;;5026290;28;20032;-82
2022/10/07 03:58:17;;;;;;;2.17;1.00;;;10.70;79.10;;;;;;5007884;28;20844;-82
2022/10/07 04:00:42;;;;;;;2.93;1.00;;;10.70;79.10;;;;;;4995509;28;20025;-82
2022/10/07 04:03:09;;;;;;;2.33;1.13;;;10.70;79.30;;;;;;5002142;28;20360;-82
2022/10/07 04:05:35;;;;;;;2.63;1.00;;;10.70;79.30;;;;;;5019479;28;20029;-82
2022/10/07 04:08:03;;;;;;;2.47;1.00;;;10.70;79.50;;;;;;5003003;28;20604;-82
2022/10/07 04:10:29;;;;;;;4.10;0.90;;;10.70;79.50;;;;;;5011879;28;20284;-82
2022/10/07 04:12:55;;;;;;;1.77;0.90;;;10.70;79.50;;;;;;5009337;28;20517;-82
2022/10/07 04:15:21;;;;;;;3.23;0.90;;;10.60;79.50;;;;;;4992268;28;20156;-82
2022/10/07 04:17:48;;;;;;;2.40;0.90;;;10.70;79.60;;;;;;4999149;28;20029;-82
2022/10/07 04:20:15;;;;;;;3.08;0.80;;;10.60;79.60;;;;;;5006496;28;20021;-82
2022/10/07 04:22:41;;;;;;;2.65;0.93;;;10.60;79.60;;;;;;5015447;28;20021;-82
2022/10/07 04:27:56;;;;;;;2.63;0.80;;;10.60;79.60;;;;;;5003288;28;20116;-82
2022/10/07 04:30:24;;;;;;;3.42;0.90;;;10.60;80.10;;;;;;4996826;28;20683;-82
2022/10/07 04:32:50;;;;;;;2.72;0.80;;;10.60;79.90;;;;;;4996929;28;20215;-82
2022/10/07 04:35:17;;;;;;;3.03;1.08;;;10.60;80.00;;;;;;5014707;28;20702;-82
2022/10/07 04:37:42;;;;;;;1.90;0.70;;;10.60;80.00;;;;;;4980183;28;20116;-82
2022/10/07 04:40:09;;;;;;;3.13;0.80;;;10.60;80.10;;;;;;5009786;28;20570;-82
2022/10/07 04:45:20;;;;;;;1.67;0.80;;;10.60;80.20;;;;;;5014372;28;20099;-82
2022/10/07 04:47:45;;;;;;;2.80;0.87;;;10.60;80.10;;;;;;5006426;28;20266;-82
2022/10/07 04:50:12;;;;;;;2.47;0.95;;;10.60;80.10;;;;;;5017593;28;20041;-81
2022/10/07 04:52:41;;;;;;;2.17;0.80;;;10.60;80.30;;;;;;5009841;28;20230;-81
2022/10/07 04:55:10;;;;;;;2.35;0.80;;;10.50;80.40;;;;;;5015095;28;20040;-82
2022/10/07 04:57:35;;;;;;;4.85;1.00;;;10.60;80.30;;;;;;5016360;28;20033;-82
2022/10/07 05:00:01;;;;;;;2.20;0.90;;;10.50;80.30;;;;;;5017233;28;20017;-82
2022/10/07 05:02:27;;;;;;;1.80;0.75;;;10.50;80.30;;;;;;4982386;28;20120;-82
2022/10/07 05:04:53;;;;;;;2.97;0.80;;;10.60;80.50;;;;;;5007308;28;20402;-82
2022/10/07 05:07:18;;;;;;;2.07;0.80;;;10.60;80.60;;;;;;5017619;28;20572;-82
2022/10/07 05:09:44;;;;;;;1.38;0.70;;;10.50;80.50;;;;;;5001439;28;20413;-82
2022/10/07 05:12:10;;;;;;;1.93;0.87;;;10.50;80.50;;;;;;5025618;28;20132;-82
2022/10/07 05:14:36;;;;;;;1.70;0.77;;;10.60;80.70;;;;;;5008869;28;20038;-82
2022/10/07 05:17:02;;;;;;;2.97;0.73;;;10.50;80.60;;;;;;4989341;28;20533;-82
2022/10/07 05:19:28;;;;;;;1.90;0.68;;;10.50;80.70;;;;;;5010635;28;20153;-81
2022/10/07 05:21:54;;;;;;;1.73;0.82;;;10.50;80.70;;;;;;4990431;28;20022;-82
2022/10/07 05:24:19;;;;;;;2.20;0.87;;;10.50;80.80;;;;;;5006537;28;21029;-82
2022/10/07 05:26:45;;;;;;;4.90;1.17;;;10.50;80.70;;;;;;5008161;28;20025;-82
2022/10/07 05:29:11;;;;;;;2.90;0.87;;;10.50;80.80;;;;;;5006884;28;20262;-82
2022/10/07 05:31:36;;;;;;;1.95;0.82;;;10.50;80.90;;;;;;5001676;28;20132;-82
2022/10/07 05:34:02;;;;;;;1.50;0.70;;;10.50;80.90;;;;;;4999966;28;20631;-82
2022/10/07 05:36:27;;;;;;;3.80;0.97;;;10.50;81.10;;;;;;4978546;28;22950;-82
2022/10/07 05:38:56;;;;;;;1.52;0.73;;;10.50;81.10;;;;;;5013669;28;20534;-82
2022/10/07 05:41:23;;;;;;;2.53;0.90;;;10.50;81.10;;;;;;4993921;28;20510;-82
2022/10/07 05:43:49;;;;;;;2.93;1.07;;;10.50;81.30;;;;;;5018461;28;20395;-82
2022/10/07 05:46:19;;;;;;;2.17;0.90;;;10.50;81.20;;;;;;5026153;28;20041;-82
2022/10/07 05:48:48;;;;;;;1.88;0.70;;;10.50;81.30;;;;;;4993006;28;20099;-82
2022/10/07 05:51:13;;;;;;;2.13;0.80;;;10.50;81.30;;;;;;5013143;28;20036;-82
2022/10/07 05:53:41;;;;;;;2.50;0.80;;;10.50;81.40;;;;;;5004256;28;20590;-81
2022/10/07 05:56:09;;;;;;;2.20;1.10;;;10.50;81.40;;;;;;5022151;28;20036;-84
2022/10/07 05:58:35;;;;;;;2.40;0.80;;;10.50;81.40;;;;;;5009437;28;20143;-84
2022/10/07 06:01:02;;;;;;;2.17;0.80;;;10.50;81.40;;;;;;4993321;28;20026;-84
2022/10/07 06:03:28;;;;;;;2.20;0.90;;;10.50;81.60;;;;;;4996608;28;20146;-83
2022/10/07 06:05:54;;;;;;;1.92;0.70;;;10.50;81.60;;;;;;5012849;28;20022;-83
2022/10/07 06:08:21;;;;;;;1.20;0.70;;;10.50;82.40;;;;;;4993009;28;20057;-83
2022/10/07 06:13:33;;;;;;;1.73;0.80;;;10.40;81.60;;;;;;4996204;28;20235;-84
2022/10/07 06:16:04;;;;;;;2.00;0.90;;;10.40;81.80;;;;;;5009582;28;20040;-84
2022/10/07 06:18:30;;;;;;;1.95;0.80;;;10.40;81.80;;;;;;5005681;28;20044;-84
2022/10/07 06:20:59;;;;;;;2.58;0.82;;;10.40;81.90;;;;;;5007503;28;20108;-83
2022/10/07 06:23:26;;;;;;;3.63;0.80;;;10.50;82.20;;;;;;4994366;28;21496;-83
2022/10/07 06:26:03;;;;;;;4.05;1.15;;;10.50;82.10;;;;;;5008107;28;20402;-84
2022/10/07 06:28:35;;;;;;;2.25;0.75;;;10.50;82.60;;;;;;5009735;28;20029;-83
2022/10/07 06:31:31;;;;;;;2.67;0.80;;;10.50;82.60;;;;;;5015787;28;20071;-84
2022/10/07 06:33:56;;;;;;;1.63;0.70;;;10.50;83.50;;;;;;5015882;28;20237;-83
2022/10/07 06:36:22;;;;;;;1.77;0.70;;;10.50;82.40;;;;;;4989474;28;20582;-83
2022/10/07 06:38:49;;;;;;;1.37;0.70;;;10.60;82.60;;;;;;5008379;28;20029;-83
2022/10/07 06:41:15;;;;;;;1.77;0.80;;;10.60;82.60;;;;;;4989263;28;20299;-83
2022/10/07 06:43:41;;;;;;;7.90;1.30;;;10.60;82.60;;;;;;5001270;28;20234;-83
2022/10/07 06:46:12;;;;;;;2.13;0.75;;;10.60;82.70;;;;;;5002247;28;20072;-83
2022/10/07 06:48:40;;;;;;;1.35;0.77;;;10.70;83.00;;;;;;4997614;28;21408;-84
2022/10/07 06:51:11;;;;;;;2.03;0.80;;;10.70;83.10;;;;;;4988586;28;20312;-83
2022/10/07 06:53:37;;;;;;;1.60;0.83;;;10.80;83.20;;;;;;5007130;28;20379;-83
2022/10/07 06:56:03;;;;;;;1.60;0.80;;;10.80;83.20;;;;;;4997999;28;20032;-82
2022/10/07 06:58:30;;;;;;;1.83;0.80;;;10.90;83.40;;;;;;4996019;28;20122;-82
2022/10/07 07:00:57;;;;;;;4.90;1.07;;;10.90;83.40;;;;;;5005823;28;20544;-82
2022/10/07 07:03:24;;;;;;;2.58;0.90;;;11.00;83.60;;;;;;5001146;28;21815;-82
2022/10/07 07:05:50;;;;;;;3.72;1.20;;;11.10;83.70;;;;;;5012094;28;20036;-82
2022/10/07 07:08:18;;;;;;;1.80;0.80;;;11.10;83.80;;;;;;4987237;28;20511;-82
2022/10/07 07:10:44;;;;;;;3.70;0.95;;;11.20;84.10;;;;;;4999311;28;20025;-82
2022/10/07 07:13:10;;;;;;;2.33;0.70;;;11.30;84.20;;;;;;4995742;28;20495;-82
2022/10/07 07:15:37;;;;;;;2.55;0.77;;;11.40;84.80;;;;;;5006974;28;20040;-82
2022/10/07 07:18:05;;;;;;;2.03;0.90;;;11.60;85.90;;;;;;5006891;28;20026;-82
2022/10/07 07:20:36;;;;;;;2.03;0.93;;;11.80;87.10;;;;;;5004446;28;21413;-82
2022/10/07 07:23:07;;;;;;;1.63;0.77;;;12.10;87.80;;;;;;4990772;28;20117;-82
2022/10/07 07:25:37;;;;;;;3.30;1.20;;;12.50;89.10;;;;;;5008019;28;20040;-83
2022/10/07 07:28:05;;;;;;;2.20;0.70;;;12.90;90.00;;;;;;4994104;28;20318;-82
2022/10/07 07:30:31;;;;;;;1.98;0.80;;;13.40;90.50;;;;;;4999732;28;20037;-83
2022/10/07 07:32:57;;;;;;;4.10;0.98;;;13.90;90.80;;;;;;4998239;28;20029;-84
2022/10/07 07:35:24;;;;;;;4.17;1.07;;;14.50;91.00;;;;;;5001151;28;20091;-84
2022/10/07 07:37:50;;;;;;;2.80;1.00;;;14.90;91.20;;;;;;4987939;28;20295;-83
2022/10/07 07:40:17;;;;;;;3.28;1.10;;;15.50;91.00;;;;;;5003084;28;20034;-83
2022/10/07 07:42:45;;;;;;;2.88;1.00;;;16.00;90.60;;;;;;4984812;28;20025;-83
2022/10/07 07:45:11;;;;;;;3.47;1.13;;;16.40;90.50;;;;;;4990251;28;20242;-83
2022/10/07 07:47:36;;;;;;;2.90;1.00;;;16.90;90.50;;;;;;4988569;28;20037;-83
2022/10/07 07:50:04;;;;;;;3.50;1.13;;;17.30;90.30;;;;;;5001690;28;20812;-83
2022/10/07 07:52:30;;;;;;;3.50;1.10;;;17.70;90.20;;;;;;4995399;28;20124;-83
2022/10/07 07:54:57;;;;;;;3.17;1.20;;;18.20;90.20;;;;;;5013542;28;20022;-83
2022/10/07 07:57:27;;;;;;;3.72;1.20;;;18.60;90.00;;;;;;5013241;28;20371;-82
2022/10/07 07:59:54;;;;;;;3.78;1.20;;;19.00;89.70;;;;;;4990232;28;20025;-83
2022/10/07 08:02:20;;;;;;;3.13;1.20;;;19.40;88.80;;;;;;4995430;28;20545;-82
2022/10/07 08:04:46;;;;;;;4.43;1.13;;;19.80;88.00;;;;;;4998265;28;20502;-82
2022/10/07 08:07:12;;;;;;;5.03;1.00;;;20.10;87.50;;;;;;5020880;28;20425;-83
2022/10/07 08:09:39;;;;;;;3.20;1.10;;;20.50;86.80;;;;;;5010025;28;20678;-82
2022/10/07 08:12:05;;;;;;;2.78;1.27;;;20.70;85.50;;;;;;5012600;28;20018;-82
2022/10/07 08:14:31;;;;;;;3.42;1.30;;;20.80;83.70;;;;;;5011509;28;20068;-82
2022/10/07 08:16:58;;;;;;;2.43;1.00;;;20.90;82.60;;;;;;4989068;28;20104;-82
2022/10/07 08:19:25;;;;;;;4.78;1.30;;;21.00;81.90;;;;;;5012636;28;20026;-82
2022/10/07 08:21:51;;;;;;;4.38;1.15;;;21.00;80.70;;;;;;5007848;28;21617;-83
2022/10/07 08:24:17;;;;;;;2.87;1.20;;;20.90;79.70;;;;;;5010566;28;20064;-82
2022/10/07 08:26:43;;;;;;;3.85;1.17;;;20.90;78.30;;;;;;4997304;28;20049;-81
2022/10/07 08:29:10;;;;;;;4.63;1.30;;;20.70;78.00;;;;;;5013463;28;20046;-82
2022/10/07 08:31:36;;;;;;;5.20;1.40;;;20.60;78.10;;;;;;4981593;28;20040;-82
2022/10/07 08:34:03;;;;;;;4.87;1.37;;;20.50;78.50;;;;;;4998161;28;20541;-82
2022/10/07 08:36:31;;;;;;;2.40;1.10;;;20.50;78.50;;;;;;5008036;28;20296;-81
2022/10/07 08:38:58;;;;;;;4.82;1.30;;;20.50;78.80;;;;;;4982604;28;20375;-82
2022/10/07 08:41:33;;;;;;;3.50;1.10;;;20.60;79.60;;;;;;5007138;28;20022;-82
2022/10/07 08:44:21;;;;;;;2.75;1.25;;;20.80;79.60;;;;;;5015524;28;20578;-81
2022/10/07 08:47:14;;;;;;;4.57;1.20;;;21.10;79.80;;;;;;4985073;28;20021;-81
2022/10/07 08:50:06;;;;;;;5.35;1.20;;;21.40;80.70;;;;;;5004966;28;20073;-82
2022/10/07 08:52:38;;;;;;;4.57;1.30;;;21.90;80.20;;;;;;5013095;28;20041;-82
2022/10/07 08:55:24;;;;;;;3.63;1.20;;;22.30;80.20;;;;;;4990285;28;20115;-82
2022/10/07 08:58:03;;;;;;;4.35;1.23;;;22.70;76.90;;;;;;5005404;28;20033;-81
2022/10/07 09:00:46;;;;;;;3.60;1.00;;;23.00;81.00;;;;;;4999029;28;20036;-82
2022/10/07 09:03:40;;;;;;;3.22;1.10;;;23.40;79.80;;;;;;4987526;28;20120;-81
2022/10/07 09:06:12;;;;;;;4.93;1.30;;;23.80;76.90;;;;;;5006161;28;20076;-81
2022/10/07 09:08:46;;;;;;;5.22;1.42;;;24.20;77.30;;;;;;4998100;28;20034;-82
2022/10/07 09:11:19;;;;;;;3.33;1.17;;;24.50;76.60;;;;;;5010695;28;20021;-82
2022/10/07 09:13:53;;;;;;;3.97;1.23;;;24.80;76.80;;;;;;4999188;28;20026;-82
2022/10/07 09:16:29;;;;;;;4.30;1.23;;;25.20;75.60;;;;;;5013258;28;20120;-81
2022/10/07 09:18:59;;;;;;;3.35;1.30;;;25.50;77.00;;;;;;4995056;28;20178;-81
2022/10/07 09:22:18;;;;;;;5.45;1.40;;;25.80;75.20;;;;;;5005930;28;20407;-82
2022/10/07 09:24:45;;;;;;;3.85;1.30;;;26.30;73.10;;;;;;4968825;28;20062;-81
2022/10/07 09:27:15;;;;;;;3.53;1.30;;;26.60;74.30;;;;;;4990827;28;20026;-82
2022/10/07 09:29:41;;;;;;;4.00;1.42;;;26.80;72.00;;;;;;4972421;28;20150;-82
2022/10/07 09:32:13;;;;;;;4.00;1.20;;;27.10;72.90;;;;;;5010233;28;20025;-82
2022/10/07 09:34:40;;;;;;;3.80;1.30;;;27.40;70.40;;;;;;4991512;28;20158;-83
2022/10/07 09:37:21;;;;;;;3.90;1.20;;;27.50;71.10;;;;;;5009734;28;20455;-82
2022/10/07 09:39:52;;;;;;;3.67;1.20;;;27.70;64.80;;;;;;5000779;28;20132;-82
2022/10/07 09:42:34;;;;;;;4.35;1.40;;;27.80;66.60;;;;;;5006635;28;20024;-82
2022/10/07 09:45:03;;;;;;;4.50;1.20;;;27.90;64.50;;;;;;4998987;28;20035;-83
2022/10/07 09:47:39;;;;;;;3.35;1.27;;;28.00;66.40;;;;;;5007815;28;20127;-84
2022/10/07 09:50:05;;;;;;;5.03;1.38;;;28.20;64.80;;;;;;4997630;28;20414;-82
2022/10/07 09:52:31;;;;;;;3.13;1.40;;;28.30;66.50;;;;;;5000589;28;20025;-82
2022/10/07 09:55:30;;;;;;;3.83;1.60;;;28.40;65.70;;;;;;5005806;28;20644;-83
2022/10/07 09:58:01;;;;;;;4.22;1.20;;;28.60;60.60;;;;;;4994011;28;20018;-83
2022/10/07 10:00:27;;;;;;;2.90;1.40;;;28.70;61.70;;;;;;5006044;28;20651;-82
2022/10/07 10:03:06;;;;;;;3.92;1.63;;;28.90;63.50;;;;;;4993937;28;20076;-83
2022/10/07 10:06:08;;;;;;;3.23;1.37;;;28.90;60.00;;;;;;4993181;28;20038;-82
2022/10/07 10:08:43;;;;;;;2.60;1.15;;;28.90;57.20;;;;;;4973062;28;20636;-83
2022/10/07 10:11:29;;;;;;;4.43;1.20;;;28.90;58.30;;;;;;4999843;28;20395;-83
2022/10/07 10:13:55;;;;;;;3.70;1.08;;;29.00;58.80;;;;;;4999598;28;20041;-83
2022/10/07 10:16:23;;;;;;;4.67;1.57;;;29.00;59.40;;;;;;4993837;28;20483;-83
2022/10/07 10:18:57;;;;;;;4.65;1.33;;;28.90;57.80;;;;;;4989592;28;20294;-84
2022/10/07 10:21:34;;;;;;;2.25;1.00;;;28.70;55.40;;;;;;4977783;28;20029;-82
2022/10/07 10:24:05;;;;;;;4.53;1.10;;;28.60;56.30;;;;;;5010824;28;20026;-83
2022/10/07 10:26:49;;;;;;;4.23;1.20;;;28.40;57.40;;;;;;4997149;28;20052;-83
2022/10/07 10:29:36;;;;;;;5.13;1.35;;;28.40;57.90;;;;;;5008011;28;20112;-82
2022/10/07 10:32:27;;;;;;;3.75;1.40;;;28.40;54.50;;;;;;5013099;28;20076;-83
2022/10/07 10:35:17;;;;;;;3.00;1.30;;;28.50;54.40;;;;;;5015909;28;20613;-81
2022/10/07 10:37:59;;;;;;;5.53;1.30;;;28.60;55.20;;;;;;4986979;28;20048;-83
2022/10/07 10:40:40;;;;;;;4.87;1.50;;;28.80;57.00;;;;;;5001164;28;20114;-82
2022/10/07 10:43:19;;;;;;;3.72;1.45;;;28.90;56.70;;;;;;5000229;28;20783;-83
2022/10/07 10:46:24;;;;;;;5.70;1.70;;;29.20;57.40;;;;;;4991433;28;20045;-81
2022/10/07 10:49:25;;;;;;;3.53;1.40;;;29.40;54.70;;;;;;5020373;28;20410;-83
2022/10/07 10:52:17;;;;;;;4.22;1.30;;;29.60;57.70;;;;;;4946689;28;20037;-83
2022/10/07 10:55:00;;;;;;;4.33;1.20;;;29.90;54.30;;;;;;5017682;28;20116;-83
2022/10/07 10:58:00;;;;;;;3.63;1.30;;;30.00;55.00;;;;;;5014774;28;20033;-83
2022/10/07 11:00:36;;;;;;;3.67;1.35;;;30.10;51.00;;;;;;4991279;28;20897;-82
2022/10/07 11:03:23;;;;;;;3.42;1.20;;;30.00;51.80;;;;;;5026185;28;20636;-82
2022/10/07 11:05:50;;;;;;;3.70;1.20;;;30.00;50.80;;;;;;5001107;28;20061;-83
2022/10/07 11:08:24;;;;;;;3.33;1.00;;;30.00;53.40;;;;;;4990418;28;20021;-83
2022/10/07 11:10:58;;;;;;;2.72;1.20;;;30.00;52.10;;;;;;5032383;28;20035;-82
2022/10/07 11:13:49;;;;;;;3.85;1.20;;;30.10;52.20;;;;;;5009298;28;20481;-82
2022/10/07 11:16:49;;;;;;;3.20;1.00;;;30.10;51.70;;;;;;4990880;28;20042;-82
2022/10/07 11:19:27;;;;;;;3.75;1.08;;;30.10;50.50;;;;;;4991578;28;20228;-82
2022/10/07 11:21:58;;;;;;;4.00;1.20;;;30.10;52.10;;;;;;5002985;28;20016;-81
2022/10/07 11:24:49;;;;;;;2.78;1.20;;;30.10;52.20;;;;;;4994047;28;20102;-83
2022/10/07 11:27:24;;;;;;;3.10;1.20;;;30.20;52.20;;;;;;5007541;28;20208;-82
2022/10/07 11:29:55;;;;;;;4.00;1.20;;;30.40;52.60;;;;;;4988068;28;20223;-82
2022/10/07 11:32:44;;;;;;;2.38;1.15;;;30.60;50.80;;;;;;5012268;28;20302;-84
2022/10/07 11:35:36;;;;;;;3.40;1.20;;;30.70;52.40;;;;;;5002280;28;20034;-82
2022/10/07 11:38:15;;;;;;;4.68;1.10;;;31.00;49.80;;;;;;5008336;28;20057;-84
2022/10/07 11:40:58;;;;;;;3.03;1.00;;;31.20;49.20;;;;;;4994650;28;20044;-82
2022/10/07 11:43:34;;;;;;;3.40;1.25;;;31.30;48.90;;;;;;5013036;28;20458;-82
2022/10/07 11:46:34;;;;;;;3.20;1.55;;;31.30;49.70;;;;;;4996714;28;20048;-85
2022/10/07 11:49:19;;;;;;;2.70;1.03;;;31.40;48.10;;;;;;4995977;28;20060;-82
2022/10/07 11:52:11;;;;;;;2.65;1.13;;;31.50;48.60;;;;;;4999268;28;20129;-83
2022/10/07 11:54:57;;;;;;;2.92;1.20;;;31.50;48.00;;;;;;5005558;28;20446;-82
2022/10/07 11:57:28;;;;;;;2.25;1.15;;;31.50;47.50;;;;;;5008364;28;20068;-82
2022/10/07 12:00:00;;;;;;;3.08;1.13;;;31.40;48.50;;;;;;5019288;28;20022;-83
2022/10/07 12:02:29;;;;;;;3.07;1.00;;;31.40;47.50;;;;;;5008672;28;20021;-82
2022/10/07 12:04:59;;;;;;;3.35;0.90;;;31.40;47.30;;;;;;5010087;28;20029;-84
2022/10/07 12:07:31;;;;;;;3.45;1.10;;;31.40;48.10;;;;;;5016373;28;20025;-83
2022/10/07 12:10:02;;;;;;;2.72;1.25;;;31.30;46.60;;;;;;4998592;28;20041;-82
2022/10/07 12:12:43;;;;;;;2.50;1.02;;;31.30;47.80;;;;;;5029692;28;20029;-85
2022/10/07 12:15:29;;;;;;;2.43;1.10;;;31.40;47.30;;;;;;5013268;28;20404;-82
2022/10/07 12:18:17;;;;;;;2.60;0.90;;;31.40;45.50;;;;;;5008217;28;20461;-83
2022/10/07 12:20:49;;;;;;;2.40;1.00;;;31.50;47.80;;;;;;5013059;28;20030;-82
2022/10/07 12:23:21;;;;;;;3.05;1.00;;;31.50;45.80;;;;;;5003635;28;20791;-85
2022/10/07 12:25:54;;;;;;;3.60;1.30;;;31.50;46.30;;;;;;5011332;28;20524;-83
2022/10/07 12:28:42;;;;;;;2.40;0.90;;;31.40;44.60;;;;;;5006271;28;20033;-83
2022/10/07 12:31:14;;;;;;;4.13;1.20;;;31.30;44.30;;;;;;5008947;28;20103;-83
2022/10/07 12:33:45;;;;;;;2.38;1.02;;;31.20;44.90;;;;;;4992896;28;20033;-83
2022/10/07 12:36:30;;;;;;;3.15;0.90;;;31.10;44.90;;;;;;5003440;28;20026;-82
2022/10/07 12:38:58;;;;;;;2.25;1.20;;;31.00;44.60;;;;;;5002314;28;20026;-82
2022/10/07 12:41:37;;;;;;;2.97;1.23;;;30.90;46.60;;;;;;5004705;28;20314;-82
2022/10/07 12:44:30;;;;;;;2.33;0.90;;;30.90;45.50;;;;;;5018766;28;20078;-82
2022/10/07 12:47:07;;;;;;;2.63;0.90;;;31.00;45.40;;;;;;5012671;28;20044;-84
2022/10/07 12:49:37;;;;;;;3.47;1.13;;;31.10;47.20;;;;;;4988237;28;21599;-83
2022/10/07 12:52:15;;;;;;;3.13;1.30;;;31.30;46.40;;;;;;5003384;28;20036;-83
2022/10/07 12:54:57;;;;;;;2.23;1.17;;;31.30;45.80;;;;;;4995109;28;20242;-85
2022/10/07 12:57:33;;;;;;;3.28;1.20;;;31.20;45.20;;;;;;4983688;28;20537;-84
2022/10/07 13:00:07;;;;;;;3.90;1.23;;;31.10;44.70;;;;;;5008102;28;20314;-83
2022/10/07 13:03:12;;;;;;;3.55;1.10;;;31.00;43.50;;;;;;4988170;28;20021;-82
2022/10/07 13:06:17;;;;;;;2.92;1.02;;;30.80;43.70;;;;;;5018982;28;20495;-81
2022/10/07 13:09:01;;;;;;;3.20;1.00;;;30.60;43.20;;;;;;5014283;28;20477;-82
2022/10/07 13:11:49;;;;;;;3.55;1.00;;;30.60;44.70;;;;;;5016869;28;20158;-83
2022/10/07 13:14:49;;;;;;;4.05;1.13;;;30.70;45.80;;;;;;5004612;28;20163;-84
2022/10/07 13:17:19;;;;;;;5.47;1.10;;;30.80;45.70;;;;;;5005589;28;20091;-84
2022/10/07 13:20:02;;;;;;;4.45;1.10;;;30.90;44.60;;;;;;5005352;28;20029;-82
2022/10/07 13:22:29;;;;;;;3.43;1.00;;;30.90;44.30;;;;;;5012807;28;20474;-82
2022/10/07 13:24:57;;;;;;;2.45;0.88;;;30.90;45.10;;;;;;5010460;28;20018;-83